createdAt,value
2018-08-09T00:01:12.716Z,1.55
2018-08-09T00:03:41.152Z,1.92
2018-08-09T00:06:09.601Z,1.92
2018-08-09T00:08:38.104Z,1.95
2018-08-09T00:11:06.244Z,1.80
2018-08-09T00:13:34.910Z,1.57
2018-08-09T00:16:03.353Z,1.72
2018-08-09T00:18:31.825Z,2.15
2018-08-09T00:21:00.268Z,1.50
2018-08-09T00:23:28.720Z,1.45
2018-08-09T00:25:57.160Z,1.67
2018-08-09T00:28:25.600Z,1.98
2018-08-09T00:30:54.006Z,1.95
2018-08-09T00:33:22.438Z,2.10
2018-08-09T00:35:50.857Z,1.40
2018-08-09T00:38:19.281Z,1.98
2018-08-09T00:40:47.682Z,1.60
2018-08-09T00:43:16.099Z,1.80
2018-08-09T00:45:44.509Z,1.70
2018-08-09T00:48:12.966Z,1.92
2018-08-09T00:50:41.371Z,1.55
2018-08-09T00:53:09.797Z,1.57
2018-08-09T00:55:37.908Z,1.42
2018-08-09T00:58:06.545Z,1.90
2018-08-09T01:00:35.051Z,2.10
2018-08-09T01:03:03.566Z,1.80
2018-08-09T01:05:31.989Z,2.12
2018-08-09T01:08:00.432Z,2.02
2018-08-09T01:10:28.888Z,2.05
2018-08-09T01:12:57.336Z,2.08
2018-08-09T01:15:25.820Z,1.90
2018-08-09T01:17:54.333Z,2.30
2018-08-09T01:20:22.757Z,2.27
2018-08-09T01:22:51.165Z,1.62
2018-08-09T01:25:19.595Z,2.10
2018-08-09T01:27:48.006Z,1.90
2018-08-09T01:30:16.500Z,1.65
2018-08-09T01:32:44.968Z,1.92
2018-08-09T01:35:13.367Z,2.05
2018-08-09T01:37:41.887Z,1.60
2018-08-09T01:40:10.354Z,2.00
2018-08-09T01:42:50.068Z,1.90
2018-08-09T01:45:18.561Z,2.00
2018-08-09T01:47:47.072Z,1.50
2018-08-09T01:50:15.547Z,1.92
2018-08-09T01:52:44.250Z,1.47
2018-08-09T01:55:12.693Z,1.72
2018-08-09T01:57:40.840Z,2.00
2018-08-09T02:00:09.286Z,1.75
2018-08-09T02:02:37.683Z,1.70
2018-08-09T02:05:07.255Z,2.20
2018-08-09T02:07:35.657Z,2.10
2018-08-09T02:10:04.682Z,1.85
2018-08-09T02:12:33.102Z,1.80
2018-08-09T02:15:01.545Z,1.85
2018-08-09T02:17:29.952Z,1.82
2018-08-09T02:19:58.404Z,1.95
2018-08-09T02:22:26.838Z,1.60
2018-08-09T02:24:55.260Z,1.82
2018-08-09T02:27:23.672Z,2.60
2018-08-09T02:29:52.112Z,3.47
2018-08-09T02:32:20.505Z,1.92
2018-08-09T02:34:48.921Z,1.98
2018-08-09T02:37:17.321Z,1.50
2018-08-09T02:39:45.781Z,1.47
2018-08-09T02:42:14.176Z,1.90
2018-08-09T02:44:42.623Z,1.90
2018-08-09T02:47:11.113Z,2.20
2018-08-09T02:49:39.553Z,2.10
2018-08-09T02:52:07.968Z,1.82
2018-08-09T02:54:36.364Z,2.35
2018-08-09T02:57:04.856Z,1.85
2018-08-09T02:59:33.267Z,1.75
2018-08-09T03:02:01.674Z,2.02
2018-08-09T03:04:30.053Z,1.90
2018-08-09T03:06:58.501Z,1.75
2018-08-09T03:09:26.912Z,2.10
2018-08-09T03:11:55.375Z,1.80
2018-08-09T03:14:23.798Z,2.25
2018-08-09T03:16:52.227Z,2.02
2018-08-09T03:19:20.615Z,1.95
2018-08-09T03:21:49.063Z,2.30
2018-08-09T03:24:17.500Z,2.22
2018-08-09T03:26:45.949Z,2.10
2018-08-09T03:29:14.373Z,1.70
2018-08-09T03:31:42.806Z,1.98
2018-08-09T03:34:11.220Z,2.15
2018-08-09T03:36:39.767Z,2.30
2018-08-09T03:39:09.528Z,2.40
2018-08-09T03:41:37.976Z,2.15
2018-08-09T03:44:06.604Z,1.70
2018-08-09T03:46:35.082Z,1.62
2018-08-09T03:49:03.498Z,1.87
2018-08-09T03:51:31.636Z,1.90
2018-08-09T03:54:00.028Z,2.00
2018-08-09T03:56:28.789Z,1.90
2018-08-09T03:58:57.181Z,2.20
2018-08-09T04:01:25.617Z,1.90
2018-08-09T04:03:54.105Z,2.02
2018-08-09T04:06:22.535Z,2.12
2018-08-09T04:08:50.920Z,2.35
2018-08-09T04:11:19.341Z,2.42
2018-08-09T04:13:47.742Z,2.25
2018-08-09T04:16:16.153Z,1.95
2018-08-09T04:18:44.554Z,1.87
2018-08-09T04:21:13.010Z,2.35
2018-08-09T04:23:41.433Z,2.08
2018-08-09T04:26:09.895Z,2.27
2018-08-09T04:28:38.337Z,1.87
2018-08-09T04:31:06.810Z,2.05
2018-08-09T04:33:35.314Z,1.85
2018-08-09T04:36:04.020Z,2.02
2018-08-09T04:38:32.456Z,2.02
2018-08-09T04:41:00.854Z,2.30
2018-08-09T04:43:29.330Z,2.30
2018-08-09T04:45:57.754Z,2.12
2018-08-09T04:48:26.181Z,2.08
2018-08-09T04:50:54.615Z,1.75
2018-08-09T04:53:23.068Z,1.90
2018-08-09T04:55:51.485Z,1.95
2018-08-09T04:58:20.033Z,2.45
2018-08-09T05:00:48.420Z,2.77
2018-08-09T05:03:16.841Z,2.40
2018-08-09T05:05:45.258Z,2.80
2018-08-09T05:08:13.702Z,2.60
2018-08-09T05:10:42.109Z,2.85
2018-08-09T05:13:10.542Z,3.25
2018-08-09T05:15:39.004Z,2.62
2018-08-09T05:18:07.781Z,2.40
2018-08-09T05:20:36.177Z,2.55
2018-08-09T05:23:04.635Z,2.62
2018-08-09T05:25:33.036Z,2.27
2018-08-09T05:28:01.489Z,2.60
2018-08-09T05:30:29.900Z,2.55
2018-08-09T05:32:58.360Z,3.10
2018-08-09T05:35:26.944Z,2.80
2018-08-09T05:37:55.446Z,2.90
2018-08-09T05:40:23.843Z,2.98
2018-08-09T05:42:52.289Z,2.33
2018-08-09T05:45:20.752Z,2.80
2018-08-09T05:47:49.189Z,3.02
2018-08-09T05:50:17.621Z,2.42
2018-08-09T05:52:46.193Z,2.42
2018-08-09T05:55:14.546Z,3.08
2018-08-09T05:57:42.965Z,2.80
2018-08-09T06:00:11.176Z,2.70
2018-08-09T06:02:39.610Z,2.85
2018-08-09T06:05:08.269Z,2.75
2018-08-09T06:07:36.708Z,2.22
2018-08-09T06:10:06.337Z,2.70
2018-08-09T06:12:34.814Z,2.65
2018-08-09T06:15:03.273Z,3.00
2018-08-09T06:17:31.785Z,2.20
2018-08-09T06:19:59.888Z,2.40
2018-08-09T06:22:28.368Z,2.72
2018-08-09T06:24:56.802Z,2.65
2018-08-09T06:27:24.936Z,2.80
2018-08-09T06:29:53.577Z,2.90
2018-08-09T06:32:22.016Z,2.90
2018-08-09T06:34:50.618Z,2.70
2018-08-09T06:37:19.156Z,2.25
2018-08-09T06:39:47.709Z,2.67
2018-08-09T06:42:16.217Z,2.27
2018-08-09T06:44:44.660Z,2.40
2018-08-09T06:47:13.212Z,2.25
2018-08-09T06:49:41.440Z,2.47
2018-08-09T06:52:09.881Z,2.40
2018-08-09T06:54:38.336Z,2.30
2018-08-09T06:57:06.937Z,2.15
2018-08-09T06:59:35.388Z,2.67
2018-08-09T07:02:03.839Z,2.45
2018-08-09T07:04:32.266Z,2.10
2018-08-09T07:07:00.685Z,2.55
2018-08-09T07:09:28.832Z,2.17
2018-08-09T07:11:57.240Z,2.27
2018-08-09T07:14:25.742Z,2.55
2018-08-09T07:16:54.175Z,1.90
2018-08-09T07:19:22.614Z,2.33
2018-08-09T07:21:51.025Z,2.08
2018-08-09T07:24:19.474Z,2.35
2018-08-09T07:26:48.004Z,2.60
2018-08-09T07:29:16.433Z,2.50
2018-08-09T07:31:44.840Z,2.50
2018-08-09T07:34:13.292Z,2.58
2018-08-09T07:36:41.764Z,1.90
2018-08-09T07:39:10.352Z,2.10
2018-08-09T07:41:39.645Z,2.20
2018-08-09T07:44:08.156Z,2.47
2018-08-09T07:46:36.593Z,1.60
2018-08-09T07:49:05.081Z,1.80
2018-08-09T07:51:33.496Z,2.02
2018-08-09T07:54:01.932Z,1.82
2018-08-09T07:56:30.334Z,1.60
2018-08-09T07:58:58.792Z,1.70
2018-08-09T08:01:27.204Z,1.40
2018-08-09T08:03:55.656Z,1.62
2018-08-09T08:06:24.118Z,1.70
2018-08-09T08:08:52.548Z,1.35
2018-08-09T08:11:20.965Z,1.50
2018-08-09T08:13:49.400Z,1.47
2018-08-09T08:16:17.832Z,1.40
2018-08-09T08:18:46.269Z,1.55
2018-08-09T08:21:14.734Z,1.40
2018-08-09T08:23:43.221Z,1.32
2018-08-09T08:26:11.697Z,1.20
2018-08-09T08:28:40.130Z,1.37
2018-08-09T08:31:08.644Z,1.30
2018-08-09T08:33:37.060Z,1.40
2018-08-09T08:36:05.527Z,1.30
2018-08-09T08:38:33.962Z,1.12
2018-08-09T08:41:02.440Z,1.12
2018-08-09T08:43:30.856Z,1.80
2018-08-09T08:45:59.023Z,1.30
2018-08-09T08:48:27.416Z,1.30
2018-08-09T08:50:55.848Z,1.92
2018-08-09T08:53:24.284Z,1.42
2018-08-09T08:55:52.928Z,1.90
2018-08-09T08:58:21.351Z,1.65
2018-08-09T09:00:49.952Z,1.65
2018-08-09T09:03:18.469Z,1.55
2018-08-09T09:05:46.920Z,1.70
2018-08-09T09:08:15.317Z,1.67
2018-08-09T09:10:43.770Z,1.70
2018-08-09T09:13:12.237Z,2.33
2018-08-09T09:15:40.754Z,1.87
2018-08-09T09:18:09.196Z,1.90
2018-08-09T09:20:37.678Z,2.10
2018-08-09T09:23:06.340Z,1.98
2018-08-09T09:25:34.783Z,1.55
2018-08-09T09:28:03.254Z,1.62
2018-08-09T09:30:31.687Z,2.12
2018-08-09T09:33:00.081Z,2.00
2018-08-09T09:35:28.525Z,1.98
2018-08-09T09:37:56.921Z,2.12
2018-08-09T09:40:25.376Z,1.87
2018-08-09T09:42:53.803Z,1.72
2018-08-09T09:45:22.252Z,2.05
2018-08-09T09:47:50.428Z,1.92
2018-08-09T09:50:18.910Z,1.92
2018-08-09T09:52:47.335Z,2.15
2018-08-09T09:55:15.745Z,2.08
2018-08-09T09:57:44.181Z,2.15
2018-08-09T10:00:17.888Z,2.20
2018-08-09T10:02:46.709Z,1.75
2018-08-09T10:05:16.073Z,1.92
2018-08-09T10:07:44.501Z,2.17
2018-08-09T10:10:13.237Z,1.90
2018-08-09T10:12:42.482Z,1.90
2018-08-09T10:15:11.060Z,1.77
2018-08-09T10:17:39.623Z,1.80
2018-08-09T10:20:08.581Z,1.80
2018-08-09T10:22:37.276Z,2.02
2018-08-09T10:25:06.220Z,2.00
2018-08-09T10:27:34.637Z,1.90
2018-08-09T10:30:03.353Z,2.00
2018-08-09T10:32:31.925Z,1.80
2018-08-09T10:35:00.355Z,1.82
2018-08-09T10:37:28.814Z,1.90
2018-08-09T10:39:57.212Z,2.22
2018-08-09T10:42:25.648Z,2.20
2018-08-09T10:44:54.054Z,2.02
2018-08-09T10:47:22.512Z,2.40
2018-08-09T10:49:50.900Z,2.00
2018-08-09T10:52:19.357Z,1.75
2018-08-09T10:54:47.777Z,2.20
2018-08-09T10:57:16.205Z,2.35
2018-08-09T10:59:44.613Z,2.10
2018-08-09T11:02:13.067Z,1.50
2018-08-09T11:04:41.477Z,1.80
2018-08-09T11:07:09.903Z,2.17
2018-08-09T11:09:38.317Z,1.85
2018-08-09T11:12:06.452Z,1.72
2018-08-09T11:14:34.853Z,1.90
2018-08-09T11:17:03.065Z,1.60
2018-08-09T11:19:31.415Z,1.70
2018-08-09T11:22:00.054Z,1.90
2018-08-09T11:24:28.448Z,1.70
2018-08-09T11:26:56.880Z,1.52
2018-08-09T11:29:25.354Z,2.05
2018-08-09T11:31:53.802Z,1.87
2018-08-09T11:34:22.220Z,1.80
2018-08-09T11:36:50.650Z,2.08
2018-08-09T11:39:19.065Z,1.70
2018-08-09T11:41:47.509Z,1.90
2018-08-09T11:44:15.938Z,1.90
2018-08-09T11:46:44.352Z,1.80
2018-08-09T11:49:12.806Z,1.80
2018-08-09T11:51:41.221Z,1.82
2018-08-09T11:54:09.784Z,1.85
2018-08-09T11:56:38.284Z,2.00
2018-08-09T11:59:06.695Z,1.87
2018-08-09T12:01:35.185Z,2.15
2018-08-09T12:04:03.630Z,1.72
2018-08-09T12:06:32.061Z,2.20
2018-08-09T12:09:00.480Z,1.95
2018-08-09T12:11:28.893Z,1.92
2018-08-09T12:13:57.374Z,1.98
2018-08-09T12:16:25.925Z,2.45
2018-08-09T12:18:54.917Z,2.00
2018-08-09T12:21:23.349Z,2.20
2018-08-09T12:23:51.879Z,2.00
2018-08-09T12:26:20.325Z,1.85
2018-08-09T12:28:48.808Z,2.08
2018-08-09T12:31:17.383Z,2.08
2018-08-09T12:33:45.843Z,1.95
2018-08-09T12:36:14.308Z,1.82
2018-08-09T12:38:42.835Z,1.72
2018-08-09T12:41:11.281Z,1.77
2018-08-09T12:43:39.773Z,1.87
2018-08-09T12:46:08.365Z,2.12
2018-08-09T12:48:36.523Z,2.20
2018-08-09T12:51:05.329Z,2.02
2018-08-09T12:53:34.028Z,2.02
2018-08-09T12:56:02.467Z,1.80
2018-08-09T12:58:30.960Z,1.70
2018-08-09T13:00:59.436Z,2.17
2018-08-09T13:03:27.885Z,2.00
2018-08-09T13:05:56.320Z,1.75
2018-08-09T13:08:25.051Z,1.82
2018-08-09T13:10:53.112Z,2.05
2018-08-09T13:13:21.585Z,1.95
2018-08-09T13:15:50.188Z,2.05
2018-08-09T13:18:18.660Z,2.05
2018-08-09T13:20:47.160Z,2.10
2018-08-09T13:23:15.624Z,1.98
2018-08-09T13:25:44.074Z,2.12
2018-08-09T13:28:12.564Z,2.15
2018-08-09T13:30:40.952Z,2.60
2018-08-09T13:33:09.057Z,3.00
2018-08-09T13:35:37.555Z,1.95
2018-08-09T13:38:06.024Z,2.10
2018-08-09T13:40:34.405Z,2.30
2018-08-09T13:43:02.855Z,2.10
2018-08-09T13:45:31.409Z,2.10
2018-08-09T13:47:59.886Z,2.27
2018-08-09T13:50:28.385Z,2.25
2018-08-09T13:52:56.810Z,2.33
2018-08-09T13:55:25.272Z,2.00
2018-08-09T13:57:53.734Z,2.05
2018-08-09T14:00:22.183Z,2.30
2018-08-09T14:02:50.653Z,2.10
2018-08-09T14:05:19.168Z,2.30
2018-08-09T14:07:47.633Z,2.45
2018-08-09T14:10:16.081Z,2.42
2018-08-09T14:12:44.498Z,2.27
2018-08-09T14:15:14.331Z,2.42
2018-08-09T14:17:43.033Z,2.25
2018-08-09T14:20:15.290Z,2.65
2018-08-09T14:22:44.028Z,2.22
2018-08-09T14:25:12.857Z,1.92
2018-08-09T14:27:41.049Z,2.50
2018-08-09T14:30:11.413Z,2.35
2018-08-09T14:32:39.874Z,2.37
2018-08-09T14:35:10.245Z,1.90
2018-08-09T14:37:38.973Z,2.27
2018-08-09T14:40:08.441Z,2.60
2018-08-09T14:42:37.194Z,2.15
2018-08-09T14:45:08.340Z,2.37
2018-08-09T14:47:37.074Z,2.50
2018-08-09T14:50:06.475Z,2.67
2018-08-09T14:52:35.424Z,2.20
2018-08-09T14:55:05.093Z,1.90
2018-08-09T14:57:33.597Z,2.27
2018-08-09T15:00:02.082Z,2.35
2018-08-09T15:02:30.550Z,2.42
2018-08-09T15:04:59.055Z,2.25
2018-08-09T15:07:27.536Z,2.37
2018-08-09T15:09:56.125Z,2.45
2018-08-09T15:12:24.553Z,2.30
2018-08-09T15:14:53.114Z,2.60
2018-08-09T15:17:21.622Z,2.02
2018-08-09T15:19:50.052Z,2.50
2018-08-09T15:22:18.537Z,2.35
2018-08-09T15:24:46.989Z,2.40
2018-08-09T15:27:15.503Z,2.45
2018-08-09T15:29:44.029Z,2.08
2018-08-09T15:32:12.590Z,2.40
2018-08-09T15:34:41.109Z,2.77
2018-08-09T15:37:09.578Z,2.50
2018-08-09T15:39:37.704Z,2.65
2018-08-09T15:42:05.845Z,2.65
2018-08-09T15:44:34.268Z,2.30
2018-08-09T15:47:02.807Z,2.83
2018-08-09T15:49:31.281Z,2.92
2018-08-09T15:51:59.726Z,2.87
2018-08-09T15:54:28.125Z,3.02
2018-08-09T15:56:56.553Z,2.75
2018-08-09T15:59:25.002Z,2.70
2018-08-09T16:01:53.491Z,2.45
2018-08-09T16:04:22.373Z,2.27
2018-08-09T16:06:50.887Z,2.30
2018-08-09T16:09:19.336Z,2.40
2018-08-09T16:11:47.848Z,2.40
2018-08-09T16:14:16.298Z,2.85
2018-08-09T16:16:44.744Z,2.47
2018-08-09T16:19:13.187Z,2.45
2018-08-09T16:21:41.620Z,2.42
2018-08-09T16:24:10.083Z,2.30
2018-08-09T16:26:38.592Z,2.52
2018-08-09T16:29:07.072Z,2.83
2018-08-09T16:31:35.236Z,2.87
2018-08-09T16:34:03.700Z,2.40
2018-08-09T16:36:32.217Z,2.83
2018-08-09T16:39:00.645Z,2.37
2018-08-09T16:41:29.096Z,2.22
2018-08-09T16:43:57.562Z,2.52
2018-08-09T16:46:26.139Z,2.37
2018-08-09T16:48:54.545Z,2.70
2018-08-09T16:51:22.695Z,2.58
2018-08-09T16:53:51.256Z,2.67
2018-08-09T16:56:19.772Z,2.58
2018-08-09T16:58:48.689Z,2.20
2018-08-09T17:01:17.120Z,2.42
2018-08-09T17:03:45.681Z,2.42
2018-08-09T17:06:14.140Z,2.17
2018-08-09T17:08:42.565Z,2.65
2018-08-09T17:11:11.013Z,2.33
2018-08-09T17:13:39.476Z,2.27
2018-08-09T17:16:07.968Z,2.00
2018-08-09T17:18:36.401Z,2.42
2018-08-09T17:21:04.885Z,2.05
2018-08-09T17:23:33.324Z,2.45
2018-08-09T17:26:01.794Z,2.55
2018-08-09T17:28:30.298Z,2.77
2018-08-09T17:30:58.748Z,2.00
2018-08-09T17:33:27.219Z,2.27
2018-08-09T17:35:55.665Z,2.52
2018-08-09T17:38:24.174Z,2.37
2018-08-09T17:40:52.691Z,1.92
2018-08-09T17:43:20.847Z,2.60
2018-08-09T17:45:49.265Z,2.87
2018-08-09T17:48:17.789Z,2.52
2018-08-09T17:50:46.239Z,2.65
2018-08-09T17:53:14.706Z,2.70
2018-08-09T17:55:43.137Z,2.90
2018-08-09T17:58:12.010Z,2.70
2018-08-09T18:00:40.422Z,2.40
2018-08-09T18:03:08.885Z,2.45
2018-08-09T18:05:37.335Z,2.50
2018-08-09T18:08:06.160Z,4.05
2018-08-09T18:10:35.668Z,5.15
2018-08-09T18:13:04.258Z,4.30
2018-08-09T18:15:32.946Z,5.17
2018-08-09T18:18:02.259Z,5.20
2018-08-09T18:20:33.372Z,4.85
2018-08-09T18:23:01.908Z,4.15
2018-08-09T18:25:30.372Z,3.92
2018-08-09T18:27:58.892Z,4.87
2018-08-09T18:30:27.325Z,4.58
2018-08-09T18:32:55.888Z,4.03
2018-08-09T18:35:24.295Z,4.10
2018-08-09T18:37:52.802Z,4.22
2018-08-09T18:40:23.662Z,4.67
2018-08-09T18:42:52.113Z,3.83
2018-08-09T18:45:21.132Z,3.83
2018-08-09T18:47:49.661Z,4.20
2018-08-09T18:50:22.061Z,3.42
2018-08-09T18:52:50.200Z,3.90
2018-08-09T18:55:19.644Z,4.30
2018-08-09T18:57:48.318Z,2.87
2018-08-09T19:00:19.257Z,3.42
2018-08-09T19:02:48.294Z,3.33
2018-08-09T19:05:16.972Z,3.00
2018-08-09T19:07:45.672Z,3.10
2018-08-09T19:10:29.885Z,2.83
2018-08-09T19:12:58.383Z,3.08
2018-08-09T19:15:26.862Z,3.50
2018-08-09T19:17:55.356Z,2.42
2018-08-09T19:20:26.149Z,2.70
2018-08-09T19:22:54.672Z,2.95
2018-08-09T19:25:23.187Z,2.45
2018-08-09T19:27:51.717Z,3.00
2018-08-09T19:30:24.022Z,2.85
2018-08-09T19:32:52.598Z,2.35
2018-08-09T19:35:21.592Z,3.67
2018-08-09T19:37:50.534Z,3.30
2018-08-09T19:40:22.052Z,3.05
2018-08-09T19:42:50.526Z,3.08
2018-08-09T19:45:19.643Z,3.30
2018-08-09T19:47:48.511Z,2.50
2018-08-09T19:50:18.636Z,3.42
2018-08-09T19:52:46.748Z,3.20
2018-08-09T19:55:16.625Z,3.40
2018-08-09T19:57:46.309Z,2.80
2018-08-09T20:00:16.612Z,3.35
2018-08-09T20:02:46.239Z,2.98
2018-08-09T20:05:14.773Z,2.62
2018-08-09T20:07:43.794Z,3.50
2018-08-09T20:10:12.920Z,3.05
2018-08-09T20:12:41.873Z,3.65
2018-08-09T20:15:13.462Z,3.52
2018-08-09T20:17:41.978Z,3.62
2018-08-09T20:20:12.012Z,3.00
2018-08-09T20:22:40.560Z,3.40
2018-08-09T20:25:10.354Z,3.25
2018-08-09T20:27:38.953Z,3.05
2018-08-09T20:30:10.057Z,2.90
2018-08-09T20:32:38.853Z,2.60
2018-08-09T20:35:13.406Z,2.80
2018-08-09T20:37:46.675Z,2.33
2018-08-09T20:40:15.759Z,2.02
2018-08-09T20:42:45.031Z,1.98
2018-08-09T20:45:14.858Z,2.05
2018-08-09T20:47:43.415Z,3.33
2018-08-09T20:50:14.872Z,1.95
2018-08-09T20:52:44.136Z,2.10
2018-08-09T20:55:12.641Z,2.30
2018-08-09T20:57:42.091Z,1.77
2018-08-09T21:00:14.916Z,2.52
2018-08-09T21:02:44.227Z,1.85
2018-08-09T21:05:22.456Z,1.95
2018-08-09T21:07:51.928Z,1.92
2018-08-09T21:10:20.689Z,1.92
2018-08-09T21:12:49.226Z,1.60
2018-08-09T21:15:18.637Z,1.98
2018-08-09T21:17:47.084Z,1.98
2018-08-09T21:20:15.781Z,1.80
2018-08-09T21:22:45.759Z,2.33
2018-08-09T21:25:14.450Z,2.05
2018-08-09T21:27:43.213Z,1.87
2018-08-09T21:30:14.224Z,1.98
2018-08-09T21:32:42.965Z,1.70
2018-08-09T21:35:11.505Z,1.75
2018-08-09T21:37:40.926Z,1.70
2018-08-09T21:40:10.684Z,2.37
2018-08-09T21:42:39.320Z,1.70
2018-08-09T21:45:15.718Z,1.70
2018-08-09T21:47:44.190Z,2.20
2018-08-09T21:50:16.149Z,1.37
2018-08-09T21:52:44.591Z,1.67
2018-08-09T21:55:13.677Z,1.92
2018-08-09T21:57:43.330Z,1.50
2018-08-09T22:00:50.945Z,1.35
2018-08-09T22:03:21.417Z,1.92
2018-08-09T22:05:55.501Z,2.00
2018-08-09T22:08:29.297Z,1.70
2018-08-09T22:11:03.239Z,1.60
2018-08-09T22:13:37.115Z,2.12
2018-08-09T22:16:11.497Z,2.58
2018-08-09T22:18:45.361Z,2.35
2018-08-09T22:21:19.165Z,1.70
2018-08-09T22:23:48.048Z,2.20
2018-08-09T22:26:16.498Z,2.27
2018-08-09T22:28:45.240Z,1.60
2018-08-09T22:31:14.396Z,2.20
2018-08-09T22:33:42.896Z,1.87
2018-08-09T22:36:11.336Z,1.92
2018-08-09T22:38:39.861Z,1.70
2018-08-09T22:41:08.280Z,1.57
2018-08-09T22:43:36.757Z,1.85
2018-08-09T22:46:05.445Z,1.80
2018-08-09T22:48:34.286Z,1.30
2018-08-09T22:51:02.807Z,1.80
2018-08-09T22:53:31.280Z,1.35
2018-08-09T22:55:59.752Z,1.35
2018-08-09T22:58:28.224Z,1.20
2018-08-09T23:00:56.709Z,0.90
2018-08-09T23:03:25.336Z,1.15
2018-08-09T23:05:53.819Z,1.15
2018-08-09T23:08:22.285Z,1.00
2018-08-09T23:10:50.717Z,0.90
2018-08-09T23:13:19.212Z,1.22
2018-08-09T23:15:47.677Z,1.02
2018-08-09T23:18:15.815Z,1.12
2018-08-09T23:20:44.286Z,1.15
2018-08-09T23:23:12.766Z,0.80
2018-08-09T23:25:41.209Z,0.82
2018-08-09T23:28:09.739Z,1.05
2018-08-09T23:30:38.170Z,1.07
2018-08-09T23:33:06.816Z,1.37
2018-08-09T23:35:35.283Z,0.93
2018-08-09T23:38:03.923Z,1.00
2018-08-09T23:40:32.388Z,1.05
2018-08-09T23:43:00.853Z,1.30
2018-08-09T23:45:29.289Z,2.05
2018-08-09T23:47:57.800Z,1.00
2018-08-09T23:50:26.209Z,1.10
2018-08-09T23:53:23.326Z,1.40
2018-08-09T23:55:51.752Z,1.17
2018-08-09T23:58:20.212Z,1.20
